Time;durP1;ratioP1;P1;durP2;ratioP2;P2;SDS_P1;SDS_P2;PMS_P1;PMS_P2;Temp;Humidity;BMP_temperature;BMP_pressure;BME280_temperature;BME280_humidity;BME280_pressure;Samples;Min_cycle;Max_cycle;Signal;HPM_P1;HPM_P2
2022/03/16 00:01:13;;;;;;;5.18;4.68;;;;;;;;;;5057167;28;20209;-82
2022/03/16 00:03:40;;;;;;;5.38;4.90;;;;;;;;;;5052865;28;20217;-81
2022/03/16 00:06:08;;;;;;;5.88;5.38;;;;;;;;;;5036663;28;20256;-81
2022/03/16 00:08:35;;;;;;;5.20;4.43;;;;;;;;;;5036501;28;20230;-81
2022/03/16 00:11:04;;;;;;;6.20;5.03;;;;;;;;;;5036572;28;20280;-80
2022/03/16 00:13:32;;;;;;;6.25;4.60;;;;;;;;;;5044025;28;20202;-82
2022/03/16 00:15:59;;;;;;;5.85;4.50;;;;;;;;;;5044561;28;20291;-81
2022/03/16 00:18:26;;;;;;;5.75;5.15;;;;;;;;;;5044667;28;20241;-80
2022/03/16 00:20:54;;;;;;;5.05;4.55;;;;;;;;;;5041621;28;20684;-81
2022/03/16 00:23:21;;;;;;;4.68;4.18;;;;;;;;;;5036926;28;20198;-81
2022/03/16 00:25:48;;;;;;;5.40;4.90;;;;;;;;;;5036653;28;20206;-81
2022/03/16 00:28:17;;;;;;;5.80;5.00;;;;;;;;;;5036121;28;20230;-81
2022/03/16 00:30:44;;;;;;;6.07;5.10;;;;;;;;;;5035706;28;20206;-81
2022/03/16 00:33:12;;;;;;;4.65;4.25;;;;;;;;;;5035909;28;20206;-82
2022/03/16 00:35:39;;;;;;;4.45;4.05;;;;;;;;;;5055624;28;20744;-83
2022/03/16 00:38:07;;;;;;;5.80;5.22;;;;;;;;;;5055721;28;20225;-81
2022/03/16 00:40:34;;;;;;;4.95;4.47;;;;;;;;;;5055948;28;20205;-82
2022/03/16 00:43:01;;;;;;;6.18;4.75;;;;;;;;;;5055533;28;20205;-82
2022/03/16 00:45:30;;;;;;;5.40;4.65;;;;;;;;;;5055465;28;20201;-80
2022/03/16 00:47:57;;;;;;;5.32;4.82;;;;;;;;;;5055721;28;20788;-82
2022/03/16 00:50:25;;;;;;;6.65;5.25;;;;;;;;;;5055192;28;20731;-81
2022/03/16 00:52:52;;;;;;;7.38;5.88;;;;;;;;;;5055259;28;20204;-81
2022/03/16 00:55:20;;;;;;;6.45;5.03;;;;;;;;;;5055329;28;20800;-82
2022/03/16 00:57:47;;;;;;;6.15;5.47;;;;;;;;;;5055225;28;20651;-81
2022/03/16 01:00:15;;;;;;;5.72;5.03;;;;;;;;;;5055211;28;20201;-81
2022/03/16 01:02:43;;;;;;;7.03;5.78;;;;;;;;;;5054769;28;20205;-82
2022/03/16 01:05:11;;;;;;;6.38;4.93;;;;;;;;;;5054595;28;20232;-81
2022/03/16 01:07:38;;;;;;;6.95;6.25;;;;;;;;;;5055108;28;20225;-81
2022/03/16 01:10:07;;;;;;;6.57;5.45;;;;;;;;;;5054739;28;20205;-81
2022/03/16 01:12:34;;;;;;;6.55;5.40;;;;;;;;;;5055347;28;20205;-81
2022/03/16 01:15:02;;;;;;;7.35;5.35;;;;;;;;;;5055305;28;20213;-83
2022/03/16 01:17:29;;;;;;;7.35;5.43;;;;;;;;;;5055599;28;20226;-82
2022/03/16 01:19:58;;;;;;;5.53;5.00;;;;;;;;;;5054842;28;20689;-81
2022/03/16 01:22:25;;;;;;;4.30;3.90;;;;;;;;;;5055046;28;20202;-81
2022/03/16 01:24:52;;;;;;;4.22;3.80;;;;;;;;;;5055402;28;20197;-82
2022/03/16 01:27:19;;;;;;;3.40;3.10;;;;;;;;;;5055437;28;20222;-80
2022/03/16 01:29:47;;;;;;;3.70;3.40;;;;;;;;;;5055199;28;20206;-80
2022/03/16 01:32:14;;;;;;;4.68;4.13;;;;;;;;;;5054369;28;20259;-81
2022/03/16 01:34:41;;;;;;;5.07;4.18;;;;;;;;;;5054823;28;20229;-81
2022/03/16 01:37:10;;;;;;;4.68;4.28;;;;;;;;;;5054355;28;20225;-82
2022/03/16 01:39:38;;;;;;;6.25;5.47;;;;;;;;;;5054581;28;20204;-81
2022/03/16 01:42:06;;;;;;;4.95;4.55;;;;;;;;;;5054848;28;20202;-82
2022/03/16 01:44:45;;;;;;;6.32;5.43;;;;;;;;;;5054691;28;20626;-81
2022/03/16 01:47:13;;;;;;;5.53;4.85;;;;;;;;;;5055517;28;20197;-80
2022/03/16 01:49:41;;;;;;;4.10;3.70;;;;;;;;;;5054426;28;20202;-80
2022/03/16 01:52:11;;;;;;;4.78;4.20;;;;;;;;;;5054604;28;20259;-80
2022/03/16 01:54:41;;;;;;;5.85;5.25;;;;;;;;;;5054431;28;20209;-80
2022/03/16 01:57:09;;;;;;;5.72;5.18;;;;;;;;;;5054523;28;20737;-81
2022/03/16 01:59:37;;;;;;;5.30;4.80;;;;;;;;;;5054668;28;20217;-80
2022/03/16 02:02:06;;;;;;;4.53;4.13;;;;;;;;;;5054074;28;20205;-81
2022/03/16 02:04:33;;;;;;;4.80;4.32;;;;;;;;;;5054416;28;20205;-81
2022/03/16 02:07:01;;;;;;;4.32;3.92;;;;;;;;;;5053883;28;20224;-81
2022/03/16 02:09:31;;;;;;;3.38;3.10;;;;;;;;;;5053855;28;20210;-81
2022/03/16 02:11:58;;;;;;;3.38;2.95;;;;;;;;;;5053551;28;20213;-81
2022/03/16 02:14:25;;;;;;;4.05;3.50;;;;;;;;;;5053585;28;20208;-81
2022/03/16 02:16:56;;;;;;;4.28;3.88;;;;;;;;;;5053327;28;20221;-80
2022/03/16 02:19:24;;;;;;;4.95;4.00;;;;;;;;;;5053752;28;20640;-81
2022/03/16 02:21:57;;;;;;;4.18;3.78;;;;;;;;;;5053426;28;20204;-80
2022/03/16 02:24:29;;;;;;;5.15;4.63;;;;;;;;;;5053694;28;20201;-81
2022/03/16 02:26:56;;;;;;;4.15;3.85;;;;;;;;;;5053911;28;20186;-81
2022/03/16 02:29:24;;;;;;;6.32;5.22;;;;;;;;;;5053493;28;20237;-81
2022/03/16 02:31:52;;;;;;;3.40;3.03;;;;;;;;;;5053161;28;20287;-80
2022/03/16 02:34:19;;;;;;;3.80;3.50;;;;;;;;;;5053667;28;20198;-80
2022/03/16 02:36:46;;;;;;;4.82;4.43;;;;;;;;;;5053071;28;20226;-81
2022/03/16 02:39:14;;;;;;;3.67;3.38;;;;;;;;;;5052910;28;20245;-82
2022/03/16 02:41:46;;;;;;;3.58;3.28;;;;;;;;;;5052821;28;20206;-81
2022/03/16 02:44:13;;;;;;;3.33;3.03;;;;;;;;;;5053404;28;20669;-81
2022/03/16 02:46:40;;;;;;;4.30;3.90;;;;;;;;;;5053119;28;20210;-81
2022/03/16 02:49:07;;;;;;;4.63;4.22;;;;;;;;;;5053434;28;20222;-80
2022/03/16 02:51:35;;;;;;;5.28;4.30;;;;;;;;;;5052432;28;20210;-84
2022/03/16 02:54:02;;;;;;;6.30;5.70;;;;;;;;;;5052829;28;20209;-82
2022/03/16 02:56:29;;;;;;;6.45;5.85;;;;;;;;;;5052981;28;20201;-81
2022/03/16 02:58:58;;;;;;;5.90;5.40;;;;;;;;;;5052865;28;20229;-81
2022/03/16 03:01:25;;;;;;;3.83;3.53;;;;;;;;;;5053048;28;20205;-81
2022/03/16 03:03:53;;;;;;;4.00;3.70;;;;;;;;;;5052888;28;20296;-80
2022/03/16 03:06:20;;;;;;;4.00;3.60;;;;;;;;;;5052451;28;20627;-80
2022/03/16 03:08:48;;;;;;;4.13;3.83;;;;;;;;;;5052694;28;20232;-80
2022/03/16 03:11:15;;;;;;;3.60;3.30;;;;;;;;;;5053015;28;20220;-81
2022/03/16 03:13:42;;;;;;;3.30;3.00;;;;;;;;;;5052276;28;20205;-82
2022/03/16 03:16:11;;;;;;;4.15;3.75;;;;;;;;;;5053135;28;20201;-80
2022/03/16 03:18:38;;;;;;;3.70;3.40;;;;;;;;;;5051910;28;20232;-81
2022/03/16 03:21:06;;;;;;;4.35;4.05;;;;;;;;;;5052339;28;20296;-81
2022/03/16 03:23:33;;;;;;;5.03;4.43;;;;;;;;;;5051982;28;20584;-82
2022/03/16 03:26:00;;;;;;;3.65;3.35;;;;;;;;;;5052600;28;20666;-79
2022/03/16 03:28:27;;;;;;;4.45;4.05;;;;;;;;;;5051614;28;20230;-81
2022/03/16 03:30:55;;;;;;;4.38;4.03;;;;;;;;;;5052016;28;20710;-83
2022/03/16 03:33:23;;;;;;;3.78;3.47;;;;;;;;;;5051540;28;20255;-81
2022/03/16 03:35:51;;;;;;;3.90;3.60;;;;;;;;;;5052668;28;20206;-80
2022/03/16 03:38:19;;;;;;;4.30;3.90;;;;;;;;;;5051986;28;20233;-80
2022/03/16 03:40:47;;;;;;;5.35;4.85;;;;;;;;;;5052484;28;20201;-80
2022/03/16 03:43:14;;;;;;;5.32;4.82;;;;;;;;;;5052176;28;20194;-81
2022/03/16 03:45:41;;;;;;;5.45;4.95;;;;;;;;;;5052425;28;20681;-82
2022/03/16 03:48:08;;;;;;;5.60;5.10;;;;;;;;;;5052006;28;20225;-80
2022/03/16 03:50:37;;;;;;;5.32;4.82;;;;;;;;;;5052761;28;20205;-80
2022/03/16 03:53:04;;;;;;;4.40;4.00;;;;;;;;;;5051817;28;20206;-80
2022/03/16 03:55:32;;;;;;;5.60;5.10;;;;;;;;;;5052446;28;20293;-83
2022/03/16 03:57:59;;;;;;;3.60;3.25;;;;;;;;;;5051960;28;20233;-80
2022/03/16 04:00:26;;;;;;;4.03;3.72;;;;;;;;;;5052061;28;20205;-82
2022/03/16 04:02:53;;;;;;;4.22;3.83;;;;;;;;;;5051952;28;20278;-80
2022/03/16 04:05:21;;;;;;;5.15;4.65;;;;;;;;;;5051925;28;20205;-80
2022/03/16 04:07:50;;;;;;;5.03;4.63;;;;;;;;;;5051381;28;20327;-81
2022/03/16 04:10:18;;;;;;;4.95;4.45;;;;;;;;;;5051790;28;20197;-81
2022/03/16 04:12:45;;;;;;;3.60;3.30;;;;;;;;;;5052036;28;20205;-80
2022/03/16 04:15:13;;;;;;;3.70;3.40;;;;;;;;;;5052588;28;20202;-80
2022/03/16 04:17:40;;;;;;;4.40;4.00;;;;;;;;;;5051889;28;20233;-81
2022/03/16 04:20:09;;;;;;;6.82;5.68;;;;;;;;;;5051723;28;20216;-81
2022/03/16 04:22:36;;;;;;;6.50;5.65;;;;;;;;;;5051717;28;20213;-80
2022/03/16 04:25:07;;;;;;;5.95;5.45;;;;;;;;;;5052320;28;20236;-80
2022/03/16 04:27:34;;;;;;;4.28;3.88;;;;;;;;;;5052153;28;20726;-80
2022/03/16 04:30:01;;;;;;;4.13;3.83;;;;;;;;;;5052026;28;20198;-80
2022/03/16 04:32:28;;;;;;;4.07;3.72;;;;;;;;;;5051863;28;20205;-81
2022/03/16 04:34:56;;;;;;;5.00;4.18;;;;;;;;;;5037432;28;20210;-80
2022/03/16 04:37:23;;;;;;;4.47;4.13;;;;;;;;;;5032072;28;20643;-81
2022/03/16 04:39:50;;;;;;;4.75;4.35;;;;;;;;;;5032223;28;20214;-80
2022/03/16 04:42:19;;;;;;;4.72;4.25;;;;;;;;;;5036042;28;20206;-80
2022/03/16 04:44:46;;;;;;;4.40;4.00;;;;;;;;;;5035852;28;20697;-80
2022/03/16 04:47:13;;;;;;;5.20;4.78;;;;;;;;;;5036254;28;20244;-82
2022/03/16 04:49:41;;;;;;;5.28;4.78;;;;;;;;;;5035835;28;20206;-79
2022/03/16 04:52:08;;;;;;;5.90;5.40;;;;;;;;;;5035963;28;20202;-80
2022/03/16 04:54:35;;;;;;;6.45;5.85;;;;;;;;;;5035594;28;20210;-81
2022/03/16 04:57:03;;;;;;;5.10;4.70;;;;;;;;;;5035896;28;20206;-80
2022/03/16 04:59:31;;;;;;;4.47;4.15;;;;;;;;;;5035370;28;20226;-79
2022/03/16 05:01:59;;;;;;;4.55;4.10;;;;;;;;;;5035026;28;20206;-80
2022/03/16 05:04:26;;;;;;;4.20;3.60;;;;;;;;;;5044798;28;20685;-80
2022/03/16 05:06:53;;;;;;;4.47;4.07;;;;;;;;;;5055504;28;20197;-82
2022/03/16 05:09:20;;;;;;;5.25;4.78;;;;;;;;;;5054871;28;20218;-79
2022/03/16 05:11:48;;;;;;;4.35;3.95;;;;;;;;;;5058760;28;20688;-80
2022/03/16 05:14:15;;;;;;;5.78;5.22;;;;;;;;;;5059164;28;20212;-80
2022/03/16 05:16:43;;;;;;;3.47;3.17;;;;;;;;;;5055262;28;20630;-79
2022/03/16 05:19:11;;;;;;;5.05;4.65;;;;;;;;;;5054511;28;20259;-80
2022/03/16 05:21:38;;;;;;;4.38;4.00;;;;;;;;;;5054756;28;20228;-81
2022/03/16 05:24:07;;;;;;;4.18;3.70;;;;;;;;;;5054972;28;20217;-80
2022/03/16 05:26:34;;;;;;;5.35;4.95;;;;;;;;;;5055367;28;20235;-82
2022/03/16 05:29:01;;;;;;;4.63;4.22;;;;;;;;;;5054835;28;20225;-81
2022/03/16 05:31:29;;;;;;;3.53;3.22;;;;;;;;;;5055564;28;20233;-81
2022/03/16 05:33:57;;;;;;;5.30;4.80;;;;;;;;;;5054146;28;20622;-81
2022/03/16 05:36:25;;;;;;;4.22;3.92;;;;;;;;;;5054841;28;20213;-81
2022/03/16 05:38:52;;;;;;;4.28;3.97;;;;;;;;;;5054165;28;20229;-82
2022/03/16 05:41:19;;;;;;;4.10;3.80;;;;;;;;;;5054361;28;20688;-80
2022/03/16 05:43:46;;;;;;;3.60;3.30;;;;;;;;;;5055829;28;20205;-82
2022/03/16 05:46:14;;;;;;;4.45;4.05;;;;;;;;;;5055920;28;20215;-82
2022/03/16 05:48:41;;;;;;;5.32;4.82;;;;;;;;;;5054801;28;20218;-81
2022/03/16 05:51:10;;;;;;;4.72;4.32;;;;;;;;;;5053675;28;20202;-81
2022/03/16 05:53:38;;;;;;;4.97;4.50;;;;;;;;;;5053780;28;20281;-81
2022/03/16 05:56:06;;;;;;;4.85;4.40;;;;;;;;;;5054477;28;20204;-80
2022/03/16 05:58:33;;;;;;;5.32;4.93;;;;;;;;;;5054117;28;20321;-81
2022/03/16 06:01:01;;;;;;;2.83;2.63;;;;;;;;;;5054316;28;20209;-80
2022/03/16 06:03:28;;;;;;;3.92;3.63;;;;;;;;;;5054790;28;20568;-80
2022/03/16 06:05:55;;;;;;;4.50;4.13;;;;;;;;;;5055163;28;20206;-80
2022/03/16 06:08:24;;;;;;;4.90;4.50;;;;;;;;;;5054032;28;20232;-79
2022/03/16 06:10:51;;;;;;;4.78;4.38;;;;;;;;;;5055014;28;20201;-80
2022/03/16 06:13:18;;;;;;;5.45;4.95;;;;;;;;;;5055532;28;20601;-79
2022/03/16 06:15:46;;;;;;;5.72;5.22;;;;;;;;;;5057877;28;20206;-79
2022/03/16 06:18:13;;;;;;;4.85;4.50;;;;;;;;;;5062212;28;20225;-80
2022/03/16 06:20:41;;;;;;;5.78;5.03;;;;;;;;;;5054753;28;20312;-80
2022/03/16 06:23:08;;;;;;;3.80;3.53;;;;;;;;;;5065383;28;20198;-80
2022/03/16 06:25:37;;;;;;;5.45;5.00;;;;;;;;;;5054886;28;20202;-80
2022/03/16 06:28:05;;;;;;;5.18;4.68;;;;;;;;;;5054224;28;20600;-80
2022/03/16 06:30:32;;;;;;;4.57;4.18;;;;;;;;;;5054427;28;20202;-80
2022/03/16 06:32:59;;;;;;;3.67;3.38;;;;;;;;;;5055021;28;20210;-80
2022/03/16 06:35:27;;;;;;;3.28;3.08;;;;;;;;;;5068951;28;20213;-80
2022/03/16 06:37:54;;;;;;;3.47;3.25;;;;;;;;;;5076331;28;20637;-78
2022/03/16 06:40:21;;;;;;;3.58;3.38;;;;;;;;;;5076037;28;20345;-78
2022/03/16 06:42:53;;;;;;;3.05;2.80;;;;;;;;;;5061498;28;20201;-79
2022/03/16 06:45:21;;;;;;;3.33;3.13;;;;;;;;;;5058542;28;20693;-79
2022/03/16 06:47:49;;;;;;;3.72;3.42;;;;;;;;;;5054919;28;20303;-80
2022/03/16 06:50:18;;;;;;;3.13;2.90;;;;;;;;;;5053901;28;20202;-80
2022/03/16 06:52:45;;;;;;;3.72;3.33;;;;;;;;;;5054071;28;20201;-79
2022/03/16 06:55:13;;;;;;;3.25;2.95;;;;;;;;;;5053249;28;20213;-80
2022/03/16 06:57:40;;;;;;;3.78;3.47;;;;;;;;;;5053203;28;20236;-80
2022/03/16 07:00:14;;;;;;;3.95;3.65;;;;;;;;;;5054021;28;20225;-80
2022/03/16 07:02:53;;;;;;;5.18;4.78;;;;;;;;;;5053934;28;20212;-79
2022/03/16 07:05:21;;;;;;;4.50;4.15;;;;;;;;;;5064334;28;20204;-79
2022/03/16 07:07:48;;;;;;;4.78;4.45;;;;;;;;;;5072689;28;20282;-79
2022/03/16 07:10:16;;;;;;;4.78;4.38;;;;;;;;;;5068764;28;20755;-80
2022/03/16 07:12:43;;;;;;;4.50;4.20;;;;;;;;;;5053257;28;20209;-79
2022/03/16 07:15:12;;;;;;;4.90;4.50;;;;;;;;;;5054213;28;20201;-80
2022/03/16 07:17:39;;;;;;;5.38;4.80;;;;;;;;;;5052914;28;20225;-80
2022/03/16 07:20:08;;;;;;;8.18;7.03;;;;;;;;;;5053944;28;20232;-79
2022/03/16 07:22:36;;;;;;;9.38;8.38;;;;;;;;;;5052765;28;20556;-80
2022/03/16 07:25:03;;;;;;;8.38;7.30;;;;;;;;;;5071728;28;20213;-80
2022/03/16 07:27:31;;;;;;;8.57;7.32;;;;;;;;;;5072558;28;20232;-80
2022/03/16 07:29:58;;;;;;;8.20;7.45;;;;;;;;;;5072354;28;20197;-80
2022/03/16 07:32:27;;;;;;;7.63;6.82;;;;;;;;;;5072650;28;20212;-79
2022/03/16 07:34:54;;;;;;;6.47;5.82;;;;;;;;;;5070191;28;20688;-80
2022/03/16 07:37:23;;;;;;;7.93;7.13;;;;;;;;;;5072316;28;20235;-80
2022/03/16 07:39:50;;;;;;;7.97;7.18;;;;;;;;;;5072730;28;20260;-78
2022/03/16 07:42:17;;;;;;;6.38;5.78;;;;;;;;;;5072206;28;20607;-79
2022/03/16 07:44:45;;;;;;;7.03;6.32;;;;;;;;;;5072841;28;20219;-78
2022/03/16 07:47:13;;;;;;;7.75;6.95;;;;;;;;;;5072583;28;20201;-78
2022/03/16 07:49:41;;;;;;;5.55;5.03;;;;;;;;;;5054117;28;20208;-78
2022/03/16 07:52:09;;;;;;;5.55;5.07;;;;;;;;;;5062774;28;20563;-78
2022/03/16 07:54:36;;;;;;;5.38;4.88;;;;;;;;;;5089179;28;20204;-79
2022/03/16 07:57:04;;;;;;;7.75;7.03;;;;;;;;;;5078304;28;20617;-77
2022/03/16 07:59:31;;;;;;;7.55;6.50;;;;;;;;;;5055167;28;20263;-76
2022/03/16 08:01:58;;;;;;;7.32;6.63;;;;;;;;;;5064674;28;20219;-77
2022/03/16 08:04:25;;;;;;;8.35;7.07;;;;;;;;;;5073752;28;20211;-77
2022/03/16 08:06:54;;;;;;;10.05;7.70;;;;;;;;;;5074625;28;20204;-79
2022/03/16 08:09:21;;;;;;;9.77;8.68;;;;;;;;;;5073048;28;20282;-78
2022/03/16 08:11:49;;;;;;;14.20;12.63;;;;;;;;;;5055688;28;20210;-80
2022/03/16 08:14:16;;;;;;;14.48;12.60;;;;;;;;;;5054590;28;20217;-79
2022/03/16 08:16:43;;;;;;;12.77;11.27;;;;;;;;;;5057153;28;20216;-81
2022/03/16 08:19:13;;;;;;;11.35;10.15;;;;;;;;;;5058160;28;20244;-82
2022/03/16 08:21:40;;;;;;;12.68;10.80;;;;;;;;;;5074660;28;20225;-80
2022/03/16 08:24:09;;;;;;;11.95;10.10;;;;;;;;;;5090262;28;20204;-80
2022/03/16 08:26:37;;;;;;;16.15;10.57;;;;;;;;;;5089555;28;20205;-80
2022/03/16 08:29:04;;;;;;;10.90;9.80;;;;;;;;;;5077196;28;20233;-80
2022/03/16 08:31:31;;;;;;;10.55;9.20;;;;;;;;;;5067891;28;20250;-81
2022/03/16 08:33:59;;;;;;;11.65;10.43;;;;;;;;;;5075371;28;20205;-82
2022/03/16 08:36:26;;;;;;;12.93;11.55;;;;;;;;;;5076979;28;20204;-81
2022/03/16 08:38:54;;;;;;;9.23;8.23;;;;;;;;;;5075993;28;20229;-82
2022/03/16 08:41:23;;;;;;;11.95;10.73;;;;;;;;;;5076406;28;20224;-81
2022/03/16 08:43:50;;;;;;;8.13;7.32;;;;;;;;;;5076075;28;20205;-82
2022/03/16 08:46:17;;;;;;;11.20;9.07;;;;;;;;;;5059262;28;20213;-82
2022/03/16 08:48:44;;;;;;;12.20;9.50;;;;;;;;;;5056729;28;20234;-81
2022/03/16 08:51:12;;;;;;;9.55;8.63;;;;;;;;;;5057003;28;20206;-80
2022/03/16 08:53:40;;;;;;;10.82;9.73;;;;;;;;;;5056622;28;20210;-80
2022/03/16 08:56:09;;;;;;;10.73;9.52;;;;;;;;;;5056068;28;20255;-80
2022/03/16 08:58:37;;;;;;;11.90;10.75;;;;;;;;;;5057044;28;20451;-79
2022/03/16 09:01:05;;;;;;;12.10;10.90;;;;;;;;;;5056878;28;20301;-79
2022/03/16 09:03:32;;;;;;;10.05;9.02;;;;;;;;;;5056070;28;20658;-80
2022/03/16 09:06:00;;;;;;;9.10;8.18;;;;;;;;;;5073509;28;20208;-80
2022/03/16 09:08:27;;;;;;;10.63;9.60;;;;;;;;;;5058717;28;20225;-79
2022/03/16 09:10:56;;;;;;;10.70;9.60;;;;;;;;;;5059163;28;20200;-82
2022/03/16 09:13:24;;;;;;;10.40;9.30;;;;;;;;;;5056046;28;20239;-82
2022/03/16 09:15:52;;;;;;;12.02;10.52;;;;;;;;;;5056815;28;20646;-80
2022/03/16 09:18:20;;;;;;;12.20;9.98;;;;;;;;;;5056238;28;20612;-80
2022/03/16 09:20:47;;;;;;;13.30;12.00;;;;;;;;;;5056522;28;20957;-79
2022/03/16 09:23:14;;;;;;;13.00;10.68;;;;;;;;;;5056518;28;20236;-80
2022/03/16 09:25:42;;;;;;;10.93;9.77;;;;;;;;;;5056427;28;20209;-81
2022/03/16 09:28:09;;;;;;;9.00;8.13;;;;;;;;;;5058144;28;20253;-80
2022/03/16 09:30:36;;;;;;;11.77;9.82;;;;;;;;;;5056988;28;20220;-82
2022/03/16 09:33:06;;;;;;;11.27;10.10;;;;;;;;;;5055723;28;20210;-81
2022/03/16 09:35:35;;;;;;;11.35;10.30;;;;;;;;;;5073023;28;20654;-82
2022/03/16 09:38:02;;;;;;;11.25;9.77;;;;;;;;;;5075340;28;20221;-82
2022/03/16 09:40:29;;;;;;;11.85;10.65;;;;;;;;;;5074692;28;20211;-81
2022/03/16 09:42:57;;;;;;;12.60;11.23;;;;;;;;;;5074252;28;20205;-82
2022/03/16 09:45:30;;;;;;;13.75;12.32;;;;;;;;;;5075048;28;20736;-81
2022/03/16 09:47:58;;;;;;;12.00;10.70;;;;;;;;;;5074791;28;20233;-82
2022/03/16 09:50:27;;;;;;;12.85;10.85;;;;;;;;;;5074940;28;20304;-81
2022/03/16 09:52:56;;;;;;;13.10;11.32;;;;;;;;;;5074909;28;20204;-81
2022/03/16 09:55:23;;;;;;;12.95;11.43;;;;;;;;;;5074402;28;20665;-82
2022/03/16 09:57:50;;;;;;;14.10;12.65;;;;;;;;;;5070529;28;20226;-81
2022/03/16 10:00:18;;;;;;;10.23;8.73;;;;;;;;;;5055051;28;20678;-82
2022/03/16 10:02:46;;;;;;;11.02;9.45;;;;;;;;;;5057058;28;20229;-82
2022/03/16 10:05:16;;;;;;;10.98;9.80;;;;;;;;;;5067898;28;20657;-82
2022/03/16 10:07:48;;;;;;;11.88;10.02;;;;;;;;;;5075433;28;20225;-82
2022/03/16 10:13:16;;;;;;;13.75;11.23;;;;;;;;;;5055762;28;20204;-81
2022/03/16 10:15:43;;;;;;;12.90;11.63;;;;;;;;;;5056136;28;20216;-82
2022/03/16 10:18:11;;;;;;;14.52;12.07;;;;;;;;;;5056314;28;20238;-81
2022/03/16 10:20:41;;;;;;;14.48;11.10;;;;;;;;;;5055229;28;20209;-82
2022/03/16 10:23:12;;;;;;;11.98;10.80;;;;;;;;;;5056132;28;20201;-82
2022/03/16 10:25:41;;;;;;;13.13;11.70;;;;;;;;;;5056299;28;20209;-82
2022/03/16 10:28:13;;;;;;;13.43;12.02;;;;;;;;;;5056301;28;20222;-83
2022/03/16 10:30:56;;;;;;;10.70;9.63;;;;;;;;;;5055342;28;20689;-82
2022/03/16 10:33:30;;;;;;;11.93;10.32;;;;;;;;;;5050341;28;20229;-82
2022/03/16 10:36:04;;;;;;;9.55;8.65;;;;;;;;;;5064119;28;20228;-82
2022/03/16 10:38:38;;;;;;;10.57;9.57;;;;;;;;;;5054889;28;20312;-82
2022/03/16 10:46:34;;;;;;;11.93;10.73;;;;;;;;;;5055165;28;20205;-82
2022/03/16 10:46:48;;;;;;;10.05;8.43;;;;;;;;;;5055197;28;20307;-82
2022/03/16 10:49:19;;;;;;;10.88;9.57;;;;;;;;;;5054918;28;20320;-83
2022/03/16 10:51:47;;;;;;;9.38;8.38;;;;;;;;;;5055014;28;20217;-83
2022/03/16 10:54:16;;;;;;;9.93;8.93;;;;;;;;;;5055722;28;20206;-82
2022/03/16 10:56:45;;;;;;;8.68;7.78;;;;;;;;;;5053542;28;20305;-82
2022/03/16 10:59:12;;;;;;;9.05;8.13;;;;;;;;;;5054999;28;20283;-82
2022/03/16 11:01:40;;;;;;;8.48;7.68;;;;;;;;;;5054231;28;20226;-82
2022/03/16 11:04:08;;;;;;;8.52;7.82;;;;;;;;;;5057917;28;20208;-82
2022/03/16 11:06:36;;;;;;;10.95;7.63;;;;;;;;;;5060393;28;20205;-82
2022/03/16 11:09:04;;;;;;;9.65;7.78;;;;;;;;;;5054529;28;20701;-81
2022/03/16 11:14:20;;;;;;;9.55;8.55;;;;;;;;;;5054644;28;20296;-82
2022/03/16 11:16:47;;;;;;;9.25;8.32;;;;;;;;;;5054736;28;20202;-82
2022/03/16 11:19:18;;;;;;;10.73;9.63;;;;;;;;;;5074656;28;20236;-82
2022/03/16 11:21:51;;;;;;;9.77;8.63;;;;;;;;;;5074699;28;20221;-81
2022/03/16 11:24:24;;;;;;;7.93;7.18;;;;;;;;;;5073810;28;20242;-81
2022/03/16 11:27:23;;;;;;;9.82;8.82;;;;;;;;;;5073771;28;20204;-82
2022/03/16 11:30:27;;;;;;;9.23;7.15;;;;;;;;;;5075686;28;20209;-82
2022/03/16 11:32:57;;;;;;;7.75;6.95;;;;;;;;;;5075236;28;20205;-82
2022/03/16 11:35:31;;;;;;;9.45;7.15;;;;;;;;;;5059247;28;20256;-82
2022/03/16 11:38:03;;;;;;;8.25;7.45;;;;;;;;;;5055671;28;20257;-82
2022/03/16 11:40:32;;;;;;;10.18;8.32;;;;;;;;;;5055640;28;20247;-82
2022/03/16 11:43:24;;;;;;;7.88;7.13;;;;;;;;;;5055216;28;20225;-83
2022/03/16 11:45:54;;;;;;;8.25;7.32;;;;;;;;;;5055369;28;20690;-82
2022/03/16 11:48:42;;;;;;;7.85;7.05;;;;;;;;;;5056168;28;20233;-82
2022/03/16 11:51:24;;;;;;;7.13;6.43;;;;;;;;;;5053965;28;20210;-82
2022/03/16 11:54:11;;;;;;;8.25;7.07;;;;;;;;;;5055761;28;20216;-82
2022/03/16 11:56:52;;;;;;;7.45;6.75;;;;;;;;;;5056039;28;20241;-82
2022/03/16 11:59:49;;;;;;;7.78;6.03;;;;;;;;;;5056328;28;20260;-82
2022/03/16 12:02:26;;;;;;;6.28;5.35;;;;;;;;;;5051873;28;20231;-82
2022/03/16 12:05:03;;;;;;;6.28;5.63;;;;;;;;;;5066547;28;20247;-82
2022/03/16 12:07:35;;;;;;;7.32;6.50;;;;;;;;;;5054022;28;20225;-82
2022/03/16 12:10:15;;;;;;;7.30;6.65;;;;;;;;;;5055826;28;20228;-82
2022/03/16 12:12:57;;;;;;;6.75;6.15;;;;;;;;;;5056316;28;20219;-82
2022/03/16 12:15:31;;;;;;;7.95;6.13;;;;;;;;;;5057263;28;20209;-83
2022/03/16 12:18:34;;;;;;;7.68;6.22;;;;;;;;;;5057092;28;20752;-82
2022/03/16 12:21:10;;;;;;;7.05;6.15;;;;;;;;;;5057871;28;20209;-84
2022/03/16 12:23:59;;;;;;;5.45;4.95;;;;;;;;;;5057083;28;20342;-83
2022/03/16 12:26:29;;;;;;;6.43;5.82;;;;;;;;;;5057300;28;20632;-82
2022/03/16 12:29:07;;;;;;;6.45;5.78;;;;;;;;;;5057146;28;20226;-81
2022/03/16 12:31:42;;;;;;;7.28;6.57;;;;;;;;;;5051569;28;20194;-83
2022/03/16 12:34:09;;;;;;;5.85;5.35;;;;;;;;;;5062931;28;20220;-84
2022/03/16 12:36:37;;;;;;;7.03;6.28;;;;;;;;;;5059408;28;20217;-83
2022/03/16 12:39:07;;;;;;;6.50;5.93;;;;;;;;;;5058171;28;20228;-84
2022/03/16 12:44:21;;;;;;;6.97;6.28;;;;;;;;;;5065767;28;20231;-84
2022/03/16 12:47:00;;;;;;;7.97;7.13;;;;;;;;;;5073278;28;20209;-84
2022/03/16 12:49:28;;;;;;;6.20;5.57;;;;;;;;;;5073873;28;20208;-84
2022/03/16 12:51:59;;;;;;;6.13;5.55;;;;;;;;;;5047216;28;20316;-83
2022/03/16 12:54:31;;;;;;;8.25;7.35;;;;;;;;;;5047846;28;20206;-83
2022/03/16 12:57:02;;;;;;;8.07;6.68;;;;;;;;;;5053536;28;20212;-84
2022/03/16 12:59:31;;;;;;;7.35;6.72;;;;;;;;;;5054065;28;20205;-83
2022/03/16 13:02:03;;;;;;;6.80;6.10;;;;;;;;;;5055397;28;20206;-83
2022/03/16 13:04:30;;;;;;;7.57;6.75;;;;;;;;;;5066162;28;20320;-83
2022/03/16 13:07:00;;;;;;;6.97;6.38;;;;;;;;;;5060105;28;20255;-84
2022/03/16 13:09:28;;;;;;;5.40;4.90;;;;;;;;;;5057279;28;20684;-82
2022/03/16 13:12:04;;;;;;;6.72;6.07;;;;;;;;;;5056435;28;20206;-84
2022/03/16 13:14:33;;;;;;;11.05;6.97;;;;;;;;;;5057370;28;20209;-83
2022/03/16 13:17:03;;;;;;;6.93;6.22;;;;;;;;;;5057142;28;20732;-85
2022/03/16 13:19:32;;;;;;;6.15;5.60;;;;;;;;;;5056975;28;20210;-83
2022/03/16 13:22:04;;;;;;;6.07;5.57;;;;;;;;;;5056867;28;20621;-83
2022/03/16 13:24:34;;;;;;;6.55;5.45;;;;;;;;;;5057190;28;20225;-83
2022/03/16 13:27:03;;;;;;;6.15;5.55;;;;;;;;;;5058499;28;20206;-84
2022/03/16 13:29:32;;;;;;;6.18;5.68;;;;;;;;;;5056689;28;20669;-83
2022/03/16 13:32:04;;;;;;;7.00;6.32;;;;;;;;;;5056705;28;20214;-82
2022/03/16 13:34:35;;;;;;;8.57;6.70;;;;;;;;;;5062392;28;20201;-84
2022/03/16 13:37:18;;;;;;;6.22;5.45;;;;;;;;;;5058897;28;20255;-83
2022/03/16 13:39:58;;;;;;;6.78;6.07;;;;;;;;;;5056488;28;20209;-83
2022/03/16 13:42:30;;;;;;;7.43;6.78;;;;;;;;;;5065978;28;20276;-83
2022/03/16 13:45:17;;;;;;;7.78;6.97;;;;;;;;;;5075718;28;20720;-83
2022/03/16 13:47:48;;;;;;;7.15;6.45;;;;;;;;;;5049406;28;20230;-82
2022/03/16 13:50:25;;;;;;;6.68;6.07;;;;;;;;;;5049637;28;20689;-83
2022/03/16 13:52:56;;;;;;;7.80;7.00;;;;;;;;;;5056227;28;20201;-82
2022/03/16 13:55:24;;;;;;;7.78;6.97;;;;;;;;;;5056343;28;20205;-82
2022/03/16 13:57:51;;;;;;;6.18;5.57;;;;;;;;;;5055813;28;20228;-83
2022/03/16 14:00:20;;;;;;;7.22;6.53;;;;;;;;;;5056138;28;20220;-84
2022/03/16 14:02:49;;;;;;;7.63;6.90;;;;;;;;;;5055798;28;20228;-83
2022/03/16 14:05:19;;;;;;;7.30;6.60;;;;;;;;;;5068308;28;20229;-82
2022/03/16 14:07:49;;;;;;;7.30;6.70;;;;;;;;;;5056482;28;20575;-84
2022/03/16 14:10:21;;;;;;;8.48;7.70;;;;;;;;;;5056458;28;20753;-83
2022/03/16 14:12:49;;;;;;;6.75;5.95;;;;;;;;;;5055202;28;20216;-83
2022/03/16 14:15:18;;;;;;;7.75;7.05;;;;;;;;;;5055873;28;20271;-83
2022/03/16 14:17:54;;;;;;;6.78;6.18;;;;;;;;;;5055265;28;20256;-83
2022/03/16 14:20:29;;;;;;;8.02;7.03;;;;;;;;;;5055693;28;20695;-83
2022/03/16 14:22:57;;;;;;;7.22;6.18;;;;;;;;;;5055097;28;20673;-83
2022/03/16 14:25:26;;;;;;;8.55;7.75;;;;;;;;;;5055630;28;20226;-83
2022/03/16 14:27:55;;;;;;;6.47;5.88;;;;;;;;;;5055401;28;20221;-82
2022/03/16 14:30:25;;;;;;;6.65;6.05;;;;;;;;;;5055604;28;20292;-83
2022/03/16 14:33:00;;;;;;;7.68;5.65;;;;;;;;;;5074678;28;20208;-83
2022/03/16 14:35:29;;;;;;;8.60;7.80;;;;;;;;;;5061968;28;20744;-81
2022/03/16 14:37:57;;;;;;;7.82;7.13;;;;;;;;;;5053837;28;20287;-81
2022/03/16 14:40:25;;;;;;;7.20;6.50;;;;;;;;;;5054620;28;20296;-82
2022/03/16 14:42:56;;;;;;;8.25;6.53;;;;;;;;;;5054012;28;20206;-82
2022/03/16 14:45:24;;;;;;;8.95;8.05;;;;;;;;;;5056172;28;20286;-82
2022/03/16 14:47:53;;;;;;;9.20;7.50;;;;;;;;;;5056372;28;20260;-82
2022/03/16 14:50:23;;;;;;;7.95;7.25;;;;;;;;;;5054635;28;20205;-82
2022/03/16 14:52:51;;;;;;;8.00;7.22;;;;;;;;;;5055788;28;20629;-82
2022/03/16 14:55:21;;;;;;;8.65;7.85;;;;;;;;;;5056747;28;20209;-81
2022/03/16 14:57:49;;;;;;;9.35;8.38;;;;;;;;;;5055077;28;20228;-82
2022/03/16 15:00:16;;;;;;;7.78;6.30;;;;;;;;;;5055996;28;20297;-81
2022/03/16 15:02:44;;;;;;;8.07;7.38;;;;;;;;;;5055497;28;20205;-82
2022/03/16 15:05:13;;;;;;;7.82;7.13;;;;;;;;;;5069556;28;20251;-82